sensor_id;sensor_type;location;lat;lon;timestamp;P1;durP1;ratioP1;P2;durP2;ratioP2
4837;SDS011;2433;48.768;9.154;2023-09-08T00:02:06;6.00;;;5.00;;
4837;SDS011;2433;48.768;9.154;2023-09-08T00:04:32;4.43;;;4.03;;
4837;SDS011;2433;48.768;9.154;2023-09-08T00:07:00;6.13;;;4.37;;
4837;SDS011;2433;48.768;9.154;2023-09-08T00:09:26;5.40;;;4.60;;
4837;SDS011;2433;48.768;9.154;2023-09-08T00:11:52;5.60;;;5.00;;
4837;SDS011;2433;48.768;9.154;2023-09-08T00:14:20;5.60;;;4.57;;
4837;SDS011;2433;48.768;9.154;2023-09-08T00:16:45;4.97;;;4.47;;
4837;SDS011;2433;48.768;9.154;2023-09-08T00:19:11;4.90;;;4.50;;
4837;SDS011;2433;48.768;9.154;2023-09-08T00:21:37;4.97;;;4.57;;
4837;SDS011;2433;48.768;9.154;2023-09-08T00:24:03;6.87;;;5.37;;
4837;SDS011;2433;48.768;9.154;2023-09-08T00:26:29;4.87;;;4.37;;
4837;SDS011;2433;48.768;9.154;2023-09-08T00:28:55;10.13;;;6.00;;
4837;SDS011;2433;48.768;9.154;2023-09-08T00:31:21;6.20;;;5.60;;
4837;SDS011;2433;48.768;9.154;2023-09-08T00:33:46;5.83;;;5.23;;
4837;SDS011;2433;48.768;9.154;2023-09-08T00:36:12;6.57;;;4.83;;
4837;SDS011;2433;48.768;9.154;2023-09-08T00:38:38;6.10;;;5.07;;
4837;SDS011;2433;48.768;9.154;2023-09-08T00:41:06;5.70;;;4.80;;
4837;SDS011;2433;48.768;9.154;2023-09-08T00:43:32;5.33;;;4.83;;
4837;SDS011;2433;48.768;9.154;2023-09-08T00:45:58;5.80;;;4.33;;
4837;SDS011;2433;48.768;9.154;2023-09-08T00:48:24;8.27;;;5.30;;
4837;SDS011;2433;48.768;9.154;2023-09-08T00:50:50;6.13;;;5.53;;
4837;SDS011;2433;48.768;9.154;2023-09-08T00:53:15;6.43;;;5.60;;
4837;SDS011;2433;48.768;9.154;2023-09-08T00:55:43;5.67;;;4.73;;
4837;SDS011;2433;48.768;9.154;2023-09-08T00:58:09;6.60;;;5.90;;
4837;SDS011;2433;48.768;9.154;2023-09-08T01:00:36;6.07;;;4.90;;
4837;SDS011;2433;48.768;9.154;2023-09-08T01:03:02;6.60;;;5.33;;
4837;SDS011;2433;48.768;9.154;2023-09-08T01:05:28;5.70;;;5.20;;
4837;SDS011;2433;48.768;9.154;2023-09-08T01:07:53;6.13;;;5.60;;
4837;SDS011;2433;48.768;9.154;2023-09-08T01:10:20;7.47;;;5.93;;
4837;SDS011;2433;48.768;9.154;2023-09-08T01:12:46;11.17;;;6.50;;
4837;SDS011;2433;48.768;9.154;2023-09-08T01:15:12;6.10;;;5.50;;
4837;SDS011;2433;48.768;9.154;2023-09-08T01:17:37;6.70;;;5.97;;
4837;SDS011;2433;48.768;9.154;2023-09-08T01:20:06;6.60;;;5.17;;
4837;SDS011;2433;48.768;9.154;2023-09-08T01:22:44;7.40;;;5.57;;
4837;SDS011;2433;48.768;9.154;2023-09-08T01:25:17;5.83;;;5.30;;
4837;SDS011;2433;48.768;9.154;2023-09-08T01:27:54;5.67;;;5.00;;
4837;SDS011;2433;48.768;9.154;2023-09-08T01:30:21;5.80;;;5.20;;
4837;SDS011;2433;48.768;9.154;2023-09-08T01:32:49;5.30;;;4.70;;
4837;SDS011;2433;48.768;9.154;2023-09-08T01:35:16;5.53;;;4.90;;
4837;SDS011;2433;48.768;9.154;2023-09-08T01:37:44;6.20;;;5.60;;
4837;SDS011;2433;48.768;9.154;2023-09-08T01:40:10;5.77;;;5.17;;
4837;SDS011;2433;48.768;9.154;2023-09-08T01:42:37;7.47;;;5.80;;
4837;SDS011;2433;48.768;9.154;2023-09-08T01:45:03;5.10;;;4.60;;
4837;SDS011;2433;48.768;9.154;2023-09-08T01:47:29;5.83;;;5.30;;
4837;SDS011;2433;48.768;9.154;2023-09-08T01:49:55;5.83;;;5.23;;
4837;SDS011;2433;48.768;9.154;2023-09-08T01:52:20;7.10;;;5.40;;
4837;SDS011;2433;48.768;9.154;2023-09-08T01:54:46;6.33;;;5.70;;
4837;SDS011;2433;48.768;9.154;2023-09-08T01:57:11;7.30;;;5.53;;
4837;SDS011;2433;48.768;9.154;2023-09-08T01:59:37;6.13;;;5.53;;
4837;SDS011;2433;48.768;9.154;2023-09-08T02:02:03;6.57;;;5.80;;
4837;SDS011;2433;48.768;9.154;2023-09-08T02:04:29;6.03;;;5.37;;
4837;SDS011;2433;48.768;9.154;2023-09-08T02:06:55;6.60;;;5.40;;
4837;SDS011;2433;48.768;9.154;2023-09-08T02:09:20;6.17;;;5.13;;
4837;SDS011;2433;48.768;9.154;2023-09-08T02:11:46;7.90;;;5.83;;
4837;SDS011;2433;48.768;9.154;2023-09-08T02:14:11;7.40;;;5.70;;
4837;SDS011;2433;48.768;9.154;2023-09-08T02:16:37;7.30;;;6.20;;
4837;SDS011;2433;48.768;9.154;2023-09-08T02:19:02;6.70;;;5.57;;
4837;SDS011;2433;48.768;9.154;2023-09-08T02:21:28;6.47;;;5.03;;
4837;SDS011;2433;48.768;9.154;2023-09-08T02:23:53;6.17;;;5.37;;
4837;SDS011;2433;48.768;9.154;2023-09-08T02:26:19;8.60;;;5.90;;
4837;SDS011;2433;48.768;9.154;2023-09-08T02:28:44;5.60;;;5.10;;
4837;SDS011;2433;48.768;9.154;2023-09-08T02:31:12;6.57;;;4.90;;
4837;SDS011;2433;48.768;9.154;2023-09-08T02:33:37;5.63;;;4.90;;
4837;SDS011;2433;48.768;9.154;2023-09-08T02:36:06;7.70;;;5.83;;
4837;SDS011;2433;48.768;9.154;2023-09-08T02:38:33;5.37;;;4.80;;
4837;SDS011;2433;48.768;9.154;2023-09-08T02:40:58;6.90;;;5.60;;
4837;SDS011;2433;48.768;9.154;2023-09-08T02:43:24;7.03;;;6.20;;
4837;SDS011;2433;48.768;9.154;2023-09-08T02:45:50;6.90;;;5.90;;
4837;SDS011;2433;48.768;9.154;2023-09-08T02:48:17;6.37;;;5.07;;
4837;SDS011;2433;48.768;9.154;2023-09-08T02:50:43;6.53;;;5.00;;
4837;SDS011;2433;48.768;9.154;2023-09-08T02:53:08;5.87;;;5.33;;
4837;SDS011;2433;48.768;9.154;2023-09-08T02:55:34;6.50;;;5.17;;
4837;SDS011;2433;48.768;9.154;2023-09-08T02:58:00;6.63;;;5.37;;
4837;SDS011;2433;48.768;9.154;2023-09-08T03:00:26;6.30;;;5.80;;
4837;SDS011;2433;48.768;9.154;2023-09-08T03:02:52;7.10;;;5.67;;
4837;SDS011;2433;48.768;9.154;2023-09-08T03:05:17;5.83;;;5.10;;
4837;SDS011;2433;48.768;9.154;2023-09-08T03:07:47;5.70;;;5.13;;
4837;SDS011;2433;48.768;9.154;2023-09-08T03:10:13;6.53;;;4.57;;
4837;SDS011;2433;48.768;9.154;2023-09-08T03:12:38;6.20;;;5.33;;
4837;SDS011;2433;48.768;9.154;2023-09-08T03:15:04;6.17;;;5.07;;
4837;SDS011;2433;48.768;9.154;2023-09-08T03:17:30;8.50;;;5.30;;
4837;SDS011;2433;48.768;9.154;2023-09-08T03:19:56;6.30;;;5.70;;
4837;SDS011;2433;48.768;9.154;2023-09-08T03:22:21;6.80;;;5.63;;
4837;SDS011;2433;48.768;9.154;2023-09-08T03:24:47;6.10;;;5.30;;
4837;SDS011;2433;48.768;9.154;2023-09-08T03:27:13;6.27;;;5.73;;
4837;SDS011;2433;48.768;9.154;2023-09-08T03:29:38;5.13;;;4.63;;
4837;SDS011;2433;48.768;9.154;2023-09-08T03:32:04;6.00;;;5.40;;
4837;SDS011;2433;48.768;9.154;2023-09-08T03:34:31;5.30;;;4.80;;
4837;SDS011;2433;48.768;9.154;2023-09-08T03:36:56;5.80;;;5.30;;
4837;SDS011;2433;48.768;9.154;2023-09-08T03:39:22;6.23;;;5.60;;
4837;SDS011;2433;48.768;9.154;2023-09-08T03:41:47;6.10;;;5.20;;
4837;SDS011;2433;48.768;9.154;2023-09-08T03:44:13;6.50;;;5.10;;
4837;SDS011;2433;48.768;9.154;2023-09-08T03:46:38;7.30;;;5.80;;
4837;SDS011;2433;48.768;9.154;2023-09-08T03:49:04;8.23;;;5.80;;
4837;SDS011;2433;48.768;9.154;2023-09-08T03:51:29;5.47;;;4.97;;
4837;SDS011;2433;48.768;9.154;2023-09-08T03:53:55;7.33;;;6.10;;
4837;SDS011;2433;48.768;9.154;2023-09-08T03:56:20;6.43;;;5.57;;
4837;SDS011;2433;48.768;9.154;2023-09-08T03:58:47;6.53;;;5.90;;
4837;SDS011;2433;48.768;9.154;2023-09-08T04:01:13;6.30;;;5.60;;
4837;SDS011;2433;48.768;9.154;2023-09-08T04:03:38;6.63;;;5.30;;
4837;SDS011;2433;48.768;9.154;2023-09-08T04:06:04;5.83;;;4.50;;
4837;SDS011;2433;48.768;9.154;2023-09-08T04:08:29;5.50;;;4.73;;
4837;SDS011;2433;48.768;9.154;2023-09-08T04:10:55;5.83;;;4.73;;
4837;SDS011;2433;48.768;9.154;2023-09-08T04:13:20;5.53;;;5.00;;
4837;SDS011;2433;48.768;9.154;2023-09-08T04:15:46;6.07;;;5.47;;
4837;SDS011;2433;48.768;9.154;2023-09-08T04:18:12;5.70;;;4.87;;
4837;SDS011;2433;48.768;9.154;2023-09-08T04:20:37;6.13;;;4.80;;
4837;SDS011;2433;48.768;9.154;2023-09-08T04:23:03;7.00;;;5.90;;
4837;SDS011;2433;48.768;9.154;2023-09-08T04:25:28;6.60;;;4.53;;
4837;SDS011;2433;48.768;9.154;2023-09-08T04:27:54;6.20;;;5.27;;
4837;SDS011;2433;48.768;9.154;2023-09-08T04:30:19;6.80;;;5.63;;
4837;SDS011;2433;48.768;9.154;2023-09-08T04:32:45;6.10;;;5.20;;
4837;SDS011;2433;48.768;9.154;2023-09-08T04:35:11;5.63;;;5.03;;
4837;SDS011;2433;48.768;9.154;2023-09-08T04:37:37;6.50;;;5.90;;
4837;SDS011;2433;48.768;9.154;2023-09-08T04:40:03;5.67;;;5.07;;
4837;SDS011;2433;48.768;9.154;2023-09-08T04:42:29;6.37;;;5.23;;
4837;SDS011;2433;48.768;9.154;2023-09-08T04:44:56;5.37;;;4.87;;
4837;SDS011;2433;48.768;9.154;2023-09-08T04:47:22;7.27;;;5.47;;
4837;SDS011;2433;48.768;9.154;2023-09-08T04:49:48;7.80;;;5.40;;
4837;SDS011;2433;48.768;9.154;2023-09-08T04:52:14;6.67;;;5.80;;
4837;SDS011;2433;48.768;9.154;2023-09-08T04:54:40;5.97;;;5.40;;
4837;SDS011;2433;48.768;9.154;2023-09-08T04:57:05;5.50;;;5.00;;
4837;SDS011;2433;48.768;9.154;2023-09-08T04:59:31;8.03;;;6.67;;
4837;SDS011;2433;48.768;9.154;2023-09-08T05:01:58;7.17;;;6.17;;
4837;SDS011;2433;48.768;9.154;2023-09-08T05:04:24;9.10;;;6.17;;
4837;SDS011;2433;48.768;9.154;2023-09-08T05:06:50;5.60;;;5.10;;
4837;SDS011;2433;48.768;9.154;2023-09-08T05:09:17;5.30;;;4.90;;
4837;SDS011;2433;48.768;9.154;2023-09-08T05:11:42;7.50;;;5.97;;
4837;SDS011;2433;48.768;9.154;2023-09-08T05:14:08;6.07;;;5.47;;
4837;SDS011;2433;48.768;9.154;2023-09-08T05:16:35;10.07;;;5.77;;
4837;SDS011;2433;48.768;9.154;2023-09-08T05:19:11;6.57;;;5.87;;
4837;SDS011;2433;48.768;9.154;2023-09-08T05:21:42;6.17;;;5.57;;
4837;SDS011;2433;48.768;9.154;2023-09-08T05:24:08;5.43;;;4.93;;
4837;SDS011;2433;48.768;9.154;2023-09-08T05:26:36;6.43;;;5.83;;
4837;SDS011;2433;48.768;9.154;2023-09-08T05:29:02;7.77;;;6.30;;
4837;SDS011;2433;48.768;9.154;2023-09-08T05:31:28;6.60;;;5.90;;
4837;SDS011;2433;48.768;9.154;2023-09-08T05:33:53;9.67;;;5.93;;
4837;SDS011;2433;48.768;9.154;2023-09-08T05:36:19;7.97;;;6.37;;
4837;SDS011;2433;48.768;9.154;2023-09-08T05:38:45;7.23;;;5.70;;
4837;SDS011;2433;48.768;9.154;2023-09-08T05:41:11;9.20;;;6.20;;
4837;SDS011;2433;48.768;9.154;2023-09-08T05:43:36;6.83;;;6.23;;
4837;SDS011;2433;48.768;9.154;2023-09-08T05:46:02;7.40;;;6.20;;
4837;SDS011;2433;48.768;9.154;2023-09-08T05:48:29;7.77;;;6.80;;
4837;SDS011;2433;48.768;9.154;2023-09-08T05:50:55;7.60;;;6.80;;
4837;SDS011;2433;48.768;9.154;2023-09-08T05:53:21;7.77;;;6.97;;
4837;SDS011;2433;48.768;9.154;2023-09-08T05:55:46;7.90;;;7.10;;
4837;SDS011;2433;48.768;9.154;2023-09-08T05:58:12;10.20;;;7.70;;
4837;SDS011;2433;48.768;9.154;2023-09-08T06:00:37;8.63;;;7.73;;
4837;SDS011;2433;48.768;9.154;2023-09-08T06:03:03;10.33;;;8.33;;
4837;SDS011;2433;48.768;9.154;2023-09-08T06:05:30;9.50;;;8.27;;
4837;SDS011;2433;48.768;9.154;2023-09-08T06:07:56;10.00;;;7.83;;
4837;SDS011;2433;48.768;9.154;2023-09-08T06:10:21;10.30;;;7.73;;
4837;SDS011;2433;48.768;9.154;2023-09-08T06:12:47;8.70;;;7.80;;
4837;SDS011;2433;48.768;9.154;2023-09-08T06:15:16;9.97;;;8.10;;
4837;SDS011;2433;48.768;9.154;2023-09-08T06:17:42;10.40;;;8.70;;
4837;SDS011;2433;48.768;9.154;2023-09-08T06:20:08;9.53;;;7.90;;
4837;SDS011;2433;48.768;9.154;2023-09-08T06:22:34;9.93;;;7.30;;
4837;SDS011;2433;48.768;9.154;2023-09-08T06:25:00;9.17;;;8.03;;
4837;SDS011;2433;48.768;9.154;2023-09-08T06:27:26;9.77;;;8.20;;
4837;SDS011;2433;48.768;9.154;2023-09-08T06:29:51;12.20;;;8.97;;
4837;SDS011;2433;48.768;9.154;2023-09-08T06:32:17;9.87;;;8.03;;
4837;SDS011;2433;48.768;9.154;2023-09-08T06:34:45;9.37;;;7.20;;
4837;SDS011;2433;48.768;9.154;2023-09-08T06:37:11;8.60;;;6.87;;
4837;SDS011;2433;48.768;9.154;2023-09-08T06:39:36;12.20;;;7.80;;
4837;SDS011;2433;48.768;9.154;2023-09-08T06:42:03;9.47;;;7.97;;
4837;SDS011;2433;48.768;9.154;2023-09-08T06:44:29;10.00;;;8.10;;
4837;SDS011;2433;48.768;9.154;2023-09-08T06:46:56;9.70;;;8.17;;
4837;SDS011;2433;48.768;9.154;2023-09-08T06:49:24;10.23;;;7.27;;
4837;SDS011;2433;48.768;9.154;2023-09-08T06:51:49;8.83;;;6.93;;
4837;SDS011;2433;48.768;9.154;2023-09-08T06:54:15;11.63;;;8.10;;
4837;SDS011;2433;48.768;9.154;2023-09-08T06:56:43;7.90;;;7.13;;
4837;SDS011;2433;48.768;9.154;2023-09-08T06:59:08;9.03;;;8.07;;
4837;SDS011;2433;48.768;9.154;2023-09-08T07:01:35;10.30;;;7.80;;
4837;SDS011;2433;48.768;9.154;2023-09-08T07:04:01;10.60;;;8.20;;
4837;SDS011;2433;48.768;9.154;2023-09-08T07:06:27;8.97;;;8.07;;
4837;SDS011;2433;48.768;9.154;2023-09-08T07:08:54;9.27;;;7.50;;
4837;SDS011;2433;48.768;9.154;2023-09-08T07:11:20;10.53;;;7.93;;
4837;SDS011;2433;48.768;9.154;2023-09-08T07:13:47;10.30;;;8.57;;
4837;SDS011;2433;48.768;9.154;2023-09-08T07:16:12;10.63;;;8.00;;
4837;SDS011;2433;48.768;9.154;2023-09-08T07:18:38;9.30;;;8.30;;
4837;SDS011;2433;48.768;9.154;2023-09-08T07:21:06;10.17;;;7.37;;
4837;SDS011;2433;48.768;9.154;2023-09-08T07:23:32;9.73;;;8.00;;
4837;SDS011;2433;48.768;9.154;2023-09-08T07:25:57;11.53;;;7.43;;
4837;SDS011;2433;48.768;9.154;2023-09-08T07:28:27;11.30;;;7.50;;
4837;SDS011;2433;48.768;9.154;2023-09-08T07:31:00;8.70;;;7.57;;
4837;SDS011;2433;48.768;9.154;2023-09-08T07:33:27;10.27;;;7.90;;
4837;SDS011;2433;48.768;9.154;2023-09-08T07:35:53;10.77;;;7.23;;
4837;SDS011;2433;48.768;9.154;2023-09-08T07:38:18;10.70;;;9.60;;
4837;SDS011;2433;48.768;9.154;2023-09-08T07:40:44;8.73;;;7.40;;
4837;SDS011;2433;48.768;9.154;2023-09-08T07:43:10;11.93;;;7.80;;
4837;SDS011;2433;48.768;9.154;2023-09-08T07:45:36;9.03;;;7.27;;
4837;SDS011;2433;48.768;9.154;2023-09-08T07:48:02;10.17;;;7.43;;
4837;SDS011;2433;48.768;9.154;2023-09-08T07:50:28;10.33;;;7.87;;
4837;SDS011;2433;48.768;9.154;2023-09-08T07:52:55;9.60;;;7.60;;
4837;SDS011;2433;48.768;9.154;2023-09-08T07:55:22;8.20;;;7.40;;
4837;SDS011;2433;48.768;9.154;2023-09-08T07:57:49;9.53;;;7.57;;
4837;SDS011;2433;48.768;9.154;2023-09-08T08:00:15;8.30;;;7.43;;
4837;SDS011;2433;48.768;9.154;2023-09-08T08:02:44;10.47;;;8.63;;
4837;SDS011;2433;48.768;9.154;2023-09-08T08:05:11;9.60;;;7.87;;
4837;SDS011;2433;48.768;9.154;2023-09-08T08:07:38;11.43;;;8.10;;
4837;SDS011;2433;48.768;9.154;2023-09-08T08:10:04;12.73;;;7.70;;
4837;SDS011;2433;48.768;9.154;2023-09-08T08:12:30;10.10;;;8.10;;
4837;SDS011;2433;48.768;9.154;2023-09-08T08:14:56;8.30;;;7.20;;
4837;SDS011;2433;48.768;9.154;2023-09-08T08:17:21;8.67;;;7.87;;
4837;SDS011;2433;48.768;9.154;2023-09-08T08:19:47;10.00;;;7.27;;
4837;SDS011;2433;48.768;9.154;2023-09-08T08:22:12;10.47;;;6.87;;
4837;SDS011;2433;48.768;9.154;2023-09-08T08:24:38;9.60;;;6.97;;
4837;SDS011;2433;48.768;9.154;2023-09-08T08:27:03;11.73;;;7.80;;
4837;SDS011;2433;48.768;9.154;2023-09-08T08:29:29;10.13;;;7.73;;
4837;SDS011;2433;48.768;9.154;2023-09-08T08:31:55;10.30;;;8.20;;
4837;SDS011;2433;48.768;9.154;2023-09-08T08:34:20;10.33;;;6.80;;
4837;SDS011;2433;48.768;9.154;2023-09-08T08:36:47;8.30;;;7.33;;
4837;SDS011;2433;48.768;9.154;2023-09-08T08:39:13;9.40;;;6.80;;
4837;SDS011;2433;48.768;9.154;2023-09-08T08:41:40;12.70;;;8.03;;
4837;SDS011;2433;48.768;9.154;2023-09-08T08:44:06;7.83;;;6.93;;
4837;SDS011;2433;48.768;9.154;2023-09-08T08:46:33;9.67;;;7.03;;
4837;SDS011;2433;48.768;9.154;2023-09-08T08:48:59;9.67;;;7.53;;
4837;SDS011;2433;48.768;9.154;2023-09-08T08:51:26;8.90;;;7.00;;
4837;SDS011;2433;48.768;9.154;2023-09-08T08:53:54;8.63;;;7.23;;
4837;SDS011;2433;48.768;9.154;2023-09-08T08:56:20;8.97;;;7.53;;
4837;SDS011;2433;48.768;9.154;2023-09-08T08:58:46;11.57;;;7.50;;
4837;SDS011;2433;48.768;9.154;2023-09-08T09:01:12;8.00;;;6.97;;
4837;SDS011;2433;48.768;9.154;2023-09-08T09:03:38;7.40;;;6.63;;
4837;SDS011;2433;48.768;9.154;2023-09-08T09:06:05;11.13;;;7.80;;
4837;SDS011;2433;48.768;9.154;2023-09-08T09:08:31;9.83;;;7.73;;
4837;SDS011;2433;48.768;9.154;2023-09-08T09:10:57;8.57;;;6.83;;
4837;SDS011;2433;48.768;9.154;2023-09-08T09:13:23;6.87;;;6.27;;
4837;SDS011;2433;48.768;9.154;2023-09-08T09:15:49;8.40;;;7.53;;
4837;SDS011;2433;48.768;9.154;2023-09-08T09:18:15;9.20;;;7.00;;
4837;SDS011;2433;48.768;9.154;2023-09-08T09:20:41;7.90;;;7.10;;
4837;SDS011;2433;48.768;9.154;2023-09-08T09:23:31;9.47;;;8.00;;
4837;SDS011;2433;48.768;9.154;2023-09-08T09:25:58;14.80;;;7.77;;
4837;SDS011;2433;48.768;9.154;2023-09-08T09:28:25;8.63;;;7.83;;
4837;SDS011;2433;48.768;9.154;2023-09-08T09:30:51;7.70;;;6.90;;
4837;SDS011;2433;48.768;9.154;2023-09-08T09:33:19;10.10;;;9.00;;
4837;SDS011;2433;48.768;9.154;2023-09-08T09:35:47;9.30;;;7.17;;
4837;SDS011;2433;48.768;9.154;2023-09-08T09:38:15;7.53;;;6.80;;
4837;SDS011;2433;48.768;9.154;2023-09-08T09:40:42;8.83;;;7.83;;
4837;SDS011;2433;48.768;9.154;2023-09-08T09:43:08;9.93;;;6.47;;
4837;SDS011;2433;48.768;9.154;2023-09-08T09:45:37;11.80;;;7.63;;
4837;SDS011;2433;48.768;9.154;2023-09-08T09:48:03;7.83;;;7.03;;
4837;SDS011;2433;48.768;9.154;2023-09-08T09:50:30;8.20;;;7.40;;
4837;SDS011;2433;48.768;9.154;2023-09-08T09:52:57;8.47;;;7.47;;
4837;SDS011;2433;48.768;9.154;2023-09-08T09:55:24;10.30;;;7.97;;
4837;SDS011;2433;48.768;9.154;2023-09-08T09:57:51;8.43;;;7.53;;
4837;SDS011;2433;48.768;9.154;2023-09-08T10:00:27;8.60;;;6.80;;
4837;SDS011;2433;48.768;9.154;2023-09-08T10:02:54;7.70;;;6.90;;
4837;SDS011;2433;48.768;9.154;2023-09-08T10:05:19;8.63;;;7.40;;
4837;SDS011;2433;48.768;9.154;2023-09-08T10:07:48;8.90;;;7.23;;
4837;SDS011;2433;48.768;9.154;2023-09-08T10:10:15;7.60;;;6.83;;
4837;SDS011;2433;48.768;9.154;2023-09-08T10:12:44;7.80;;;7.00;;
4837;SDS011;2433;48.768;9.154;2023-09-08T10:15:11;7.63;;;6.83;;
4837;SDS011;2433;48.768;9.154;2023-09-08T10:17:38;8.53;;;6.40;;
4837;SDS011;2433;48.768;9.154;2023-09-08T10:20:06;7.57;;;6.50;;
4837;SDS011;2433;48.768;9.154;2023-09-08T10:22:41;8.13;;;6.23;;
4837;SDS011;2433;48.768;9.154;2023-09-08T10:25:08;8.27;;;7.50;;
4837;SDS011;2433;48.768;9.154;2023-09-08T10:27:34;7.83;;;7.03;;
4837;SDS011;2433;48.768;9.154;2023-09-08T10:30:03;9.40;;;7.43;;
4837;SDS011;2433;48.768;9.154;2023-09-08T10:32:35;7.17;;;6.50;;
4837;SDS011;2433;48.768;9.154;2023-09-08T10:35:03;7.57;;;6.77;;
4837;SDS011;2433;48.768;9.154;2023-09-08T10:37:29;9.40;;;6.67;;
4837;SDS011;2433;48.768;9.154;2023-09-08T10:40:28;6.67;;;6.03;;
4837;SDS011;2433;48.768;9.154;2023-09-08T10:43:07;7.40;;;6.70;;
4837;SDS011;2433;48.768;9.154;2023-09-08T10:45:33;7.90;;;7.10;;
4837;SDS011;2433;48.768;9.154;2023-09-08T10:47:59;7.20;;;6.40;;
4837;SDS011;2433;48.768;9.154;2023-09-08T10:50:26;10.33;;;6.70;;
4837;SDS011;2433;48.768;9.154;2023-09-08T10:53:09;6.73;;;6.17;;
4837;SDS011;2433;48.768;9.154;2023-09-08T10:58:20;6.00;;;5.40;;
4837;SDS011;2433;48.768;9.154;2023-09-08T11:00:47;8.90;;;6.40;;
4837;SDS011;2433;48.768;9.154;2023-09-08T11:03:25;6.27;;;5.77;;
4837;SDS011;2433;48.768;9.154;2023-09-08T11:05:52;6.50;;;5.93;;
4837;SDS011;2433;48.768;9.154;2023-09-08T11:08:18;6.50;;;5.90;;
4837;SDS011;2433;48.768;9.154;2023-09-08T11:10:44;6.90;;;6.30;;
4837;SDS011;2433;48.768;9.154;2023-09-08T11:13:11;7.40;;;6.70;;
4837;SDS011;2433;48.768;9.154;2023-09-08T11:15:37;9.37;;;6.90;;
4837;SDS011;2433;48.768;9.154;2023-09-08T11:18:06;7.30;;;6.70;;
4837;SDS011;2433;48.768;9.154;2023-09-08T11:20:33;9.27;;;6.30;;
4837;SDS011;2433;48.768;9.154;2023-09-08T11:22:59;8.37;;;7.40;;
4837;SDS011;2433;48.768;9.154;2023-09-08T11:25:25;6.93;;;6.23;;
4837;SDS011;2433;48.768;9.154;2023-09-08T11:27:51;8.37;;;6.23;;
4837;SDS011;2433;48.768;9.154;2023-09-08T11:30:17;6.80;;;6.13;;
4837;SDS011;2433;48.768;9.154;2023-09-08T11:32:44;8.07;;;7.37;;
4837;SDS011;2433;48.768;9.154;2023-09-08T11:35:10;7.90;;;7.20;;
4837;SDS011;2433;48.768;9.154;2023-09-08T11:37:37;7.27;;;6.57;;
4837;SDS011;2433;48.768;9.154;2023-09-08T11:40:04;7.57;;;6.93;;
4837;SDS011;2433;48.768;9.154;2023-09-08T11:42:40;6.70;;;6.00;;
4837;SDS011;2433;48.768;9.154;2023-09-08T11:45:17;8.20;;;7.40;;
4837;SDS011;2433;48.768;9.154;2023-09-08T11:47:46;6.97;;;6.37;;
4837;SDS011;2433;48.768;9.154;2023-09-08T11:50:12;7.80;;;7.00;;
4837;SDS011;2433;48.768;9.154;2023-09-08T11:52:48;7.90;;;6.83;;
4837;SDS011;2433;48.768;9.154;2023-09-08T11:55:14;6.93;;;5.93;;
4837;SDS011;2433;48.768;9.154;2023-09-08T11:57:41;6.77;;;6.17;;
4837;SDS011;2433;48.768;9.154;2023-09-08T12:00:07;7.10;;;6.40;;
4837;SDS011;2433;48.768;9.154;2023-09-08T12:02:36;6.47;;;5.67;;
4837;SDS011;2433;48.768;9.154;2023-09-08T12:05:03;7.47;;;6.67;;
4837;SDS011;2433;48.768;9.154;2023-09-08T12:07:28;8.10;;;6.97;;
4837;SDS011;2433;48.768;9.154;2023-09-08T12:09:54;7.93;;;7.13;;
4837;SDS011;2433;48.768;9.154;2023-09-08T12:12:20;6.73;;;6.13;;
4837;SDS011;2433;48.768;9.154;2023-09-08T12:14:45;10.20;;;6.97;;
4837;SDS011;2433;48.768;9.154;2023-09-08T12:17:11;7.33;;;6.70;;
4837;SDS011;2433;48.768;9.154;2023-09-08T12:19:40;6.90;;;6.30;;
4837;SDS011;2433;48.768;9.154;2023-09-08T12:22:06;6.70;;;6.10;;
4837;SDS011;2433;48.768;9.154;2023-09-08T12:27:18;7.63;;;6.83;;
4837;SDS011;2433;48.768;9.154;2023-09-08T12:29:58;7.80;;;6.90;;
4837;SDS011;2433;48.768;9.154;2023-09-08T12:32:26;7.70;;;7.00;;
4837;SDS011;2433;48.768;9.154;2023-09-08T12:34:54;8.50;;;7.70;;
4837;SDS011;2433;48.768;9.154;2023-09-08T12:37:24;6.27;;;5.67;;
4837;SDS011;2433;48.768;9.154;2023-09-08T12:39:53;6.50;;;5.90;;
4837;SDS011;2433;48.768;9.154;2023-09-08T12:42:19;7.97;;;6.43;;
4837;SDS011;2433;48.768;9.154;2023-09-08T12:44:46;8.17;;;7.40;;
4837;SDS011;2433;48.768;9.154;2023-09-08T12:47:12;7.73;;;6.93;;
4837;SDS011;2433;48.768;9.154;2023-09-08T12:49:39;10.03;;;7.60;;
4837;SDS011;2433;48.768;9.154;2023-09-08T12:52:04;7.83;;;7.17;;
4837;SDS011;2433;48.768;9.154;2023-09-08T12:54:30;6.70;;;6.10;;
4837;SDS011;2433;48.768;9.154;2023-09-08T12:56:56;7.70;;;7.00;;
4837;SDS011;2433;48.768;9.154;2023-09-08T12:59:22;6.60;;;6.00;;
4837;SDS011;2433;48.768;9.154;2023-09-08T13:01:48;7.13;;;6.43;;
4837;SDS011;2433;48.768;9.154;2023-09-08T13:04:13;8.50;;;6.73;;
4837;SDS011;2433;48.768;9.154;2023-09-08T13:06:39;7.73;;;6.33;;
4837;SDS011;2433;48.768;9.154;2023-09-08T13:09:05;6.83;;;6.23;;
4837;SDS011;2433;48.768;9.154;2023-09-08T13:11:31;8.27;;;6.90;;
4837;SDS011;2433;48.768;9.154;2023-09-08T13:13:56;6.37;;;5.77;;
4837;SDS011;2433;48.768;9.154;2023-09-08T13:16:22;6.60;;;5.93;;
4837;SDS011;2433;48.768;9.154;2023-09-08T13:18:47;6.10;;;5.60;;
4837;SDS011;2433;48.768;9.154;2023-09-08T13:21:14;7.20;;;6.60;;
4837;SDS011;2433;48.768;9.154;2023-09-08T13:23:40;5.93;;;5.33;;
4837;SDS011;2433;48.768;9.154;2023-09-08T13:26:05;6.73;;;6.03;;
4837;SDS011;2433;48.768;9.154;2023-09-08T13:28:31;7.37;;;6.50;;
4837;SDS011;2433;48.768;9.154;2023-09-08T13:30:56;6.90;;;6.30;;
4837;SDS011;2433;48.768;9.154;2023-09-08T13:33:22;7.50;;;6.80;;
4837;SDS011;2433;48.768;9.154;2023-09-08T13:35:47;5.90;;;5.40;;
4837;SDS011;2433;48.768;9.154;2023-09-08T13:38:13;7.17;;;6.47;;
4837;SDS011;2433;48.768;9.154;2023-09-08T13:40:39;7.00;;;6.40;;
4837;SDS011;2433;48.768;9.154;2023-09-08T13:43:06;7.13;;;6.43;;
4837;SDS011;2433;48.768;9.154;2023-09-08T13:45:32;7.53;;;6.83;;
4837;SDS011;2433;48.768;9.154;2023-09-08T13:47:57;5.70;;;5.30;;
4837;SDS011;2433;48.768;9.154;2023-09-08T13:50:23;6.57;;;5.90;;
4837;SDS011;2433;48.768;9.154;2023-09-08T13:52:49;7.00;;;6.30;;
4837;SDS011;2433;48.768;9.154;2023-09-08T13:55:14;6.13;;;5.63;;
4837;SDS011;2433;48.768;9.154;2023-09-08T13:57:40;6.67;;;5.97;;
4837;SDS011;2433;48.768;9.154;2023-09-08T14:00:06;6.47;;;5.90;;
4837;SDS011;2433;48.768;9.154;2023-09-08T14:02:35;6.73;;;6.13;;
4837;SDS011;2433;48.768;9.154;2023-09-08T14:05:01;6.93;;;6.33;;
4837;SDS011;2433;48.768;9.154;2023-09-08T14:07:27;6.37;;;5.80;;
4837;SDS011;2433;48.768;9.154;2023-09-08T14:09:52;5.47;;;4.97;;
4837;SDS011;2433;48.768;9.154;2023-09-08T14:12:18;6.20;;;5.60;;
4837;SDS011;2433;48.768;9.154;2023-09-08T14:14:43;5.80;;;5.30;;
4837;SDS011;2433;48.768;9.154;2023-09-08T14:17:09;8.17;;;5.43;;
4837;SDS011;2433;48.768;9.154;2023-09-08T14:19:35;6.10;;;5.20;;
4837;SDS011;2433;48.768;9.154;2023-09-08T14:22:00;6.40;;;5.80;;
4837;SDS011;2433;48.768;9.154;2023-09-08T14:24:26;5.47;;;5.07;;
4837;SDS011;2433;48.768;9.154;2023-09-08T14:26:51;6.37;;;5.70;;
4837;SDS011;2433;48.768;9.154;2023-09-08T14:29:18;5.83;;;5.33;;
4837;SDS011;2433;48.768;9.154;2023-09-08T14:31:46;6.90;;;6.27;;
4837;SDS011;2433;48.768;9.154;2023-09-08T14:34:12;9.53;;;6.87;;
4837;SDS011;2433;48.768;9.154;2023-09-08T14:36:38;5.90;;;5.40;;
4837;SDS011;2433;48.768;9.154;2023-09-08T14:39:03;6.00;;;5.47;;
4837;SDS011;2433;48.768;9.154;2023-09-08T14:41:29;4.30;;;3.90;;
4837;SDS011;2433;48.768;9.154;2023-09-08T14:43:55;6.07;;;5.50;;
4837;SDS011;2433;48.768;9.154;2023-09-08T14:46:20;6.80;;;5.40;;
4837;SDS011;2433;48.768;9.154;2023-09-08T14:48:46;6.00;;;5.40;;
4837;SDS011;2433;48.768;9.154;2023-09-08T14:51:11;6.40;;;5.83;;
4837;SDS011;2433;48.768;9.154;2023-09-08T14:53:36;5.97;;;5.40;;
4837;SDS011;2433;48.768;9.154;2023-09-08T14:56:02;5.83;;;5.33;;
4837;SDS011;2433;48.768;9.154;2023-09-08T14:58:29;6.07;;;5.57;;
4837;SDS011;2433;48.768;9.154;2023-09-08T15:00:59;9.00;;;6.10;;
4837;SDS011;2433;48.768;9.154;2023-09-08T15:03:32;6.07;;;5.57;;
4837;SDS011;2433;48.768;9.154;2023-09-08T15:06:01;6.33;;;5.73;;
4837;SDS011;2433;48.768;9.154;2023-09-08T15:08:27;6.60;;;5.97;;
4837;SDS011;2433;48.768;9.154;2023-09-08T15:10:53;5.70;;;5.10;;
4837;SDS011;2433;48.768;9.154;2023-09-08T15:13:19;8.13;;;5.50;;
4837;SDS011;2433;48.768;9.154;2023-09-08T15:15:45;6.10;;;5.50;;